Warning: fopen(/var/www/metroair/shared/private/wxdata/TAF/AVWX/taf_EHAM): failed to open stream: Permission denied in /var/www/metroair/shared/private/library/orig_library/lib_airport.php on line 533

Warning: fwrite() expects parameter 1 to be resource, boolean given in /var/www/metroair/shared/private/library/orig_library/lib_airport.php on line 534

Warning: fclose() expects parameter 1 to be resource, boolean given in /var/www/metroair/shared/private/library/orig_library/lib_airport.php on line 535

MET6066 - Amsterdam Schiphol to London Heathrow

Boeing 737-800
G-FLII - Fly UK
0 hrs 45 mins
200 nm
Fly UK Codeshare - Daily

Departure

Departing from
Amsterdam Schiphol (AMS)
Departure gate
Concourse G
Scheduled Departure
GMT 2020
Local 2120
METAR EHAM 222355Z 30002KT 1200 0300NW R18C/0150N R27/0150N R18R/0800U R06/0225D FZFG FEW013 M04/M04 Q1027 TEMPO 0500
TAF TAF EHAM 222314Z 2300/2406 VRB02KT 0400 FZFG VV001 TEMPO 2300/2310 1200 BCFG SCT015 BECMG 2309/2312 6000 NSW NSC BECMG 2312/2315 24007KT 9999 BKN020 TEMPO 2314/2405 5000 -RADZ -SHRA BKN012 FEW020TCU BECMG 2318/2321 VRB02KT 3000 BR PROB40 TEMPO 2322/2406 1000 BCFG
  • No charts available

Arrival

Arriving at
London Heathrow (LHR)
Arrival gate
Terminal 3
Scheduled Arrival
GMT 2105
Local 2105
METAR EGLL 230020Z 29001KT 1500 BR NSC M03/M03 Q1029 TEMPO 0500 FZFG
TAF TAF EGLL 222254Z 2300/2406 VRB02KT 2000 BR MIFG FEW045 PROB40 2300/2312 0300 FZFG VV/// PROB30 2312/2320 0500 FG BKN001 PROB40 2320/2406 0300 FZFG VV///

Route Map

Planning Resources

VALK2E GORLO UL980 XAMAN LOGAN LAM NEKSA
EHAM GORLO REFSO XAMAN LOGAN EGLL
EHAM REFSO LAM EGLL
EHAM VALK1S TAWN3A EGLL
GORLO UL980 LOGAN
Route:
OFP Layout:
Units:
Detailed Navlog:
ETOPS Planning:
Plan Stepclimbs:
Runway Analysis:
Include NOTAMS:
FIR NOTAMS:
Flight Maps:

Return Flights

MET6065 (Operated by Fly UK)
Boeing 737-800
1905 GMT

Popularity

Hub Current Bids PiReps this month Total PiReps
KMCI 0 0 3
KLAX 0 0 3
KBOS 0 0 0